North Myrtle Beach, South Carolina
Current Conditions -  °F | °C
As of 6:53 AM on Friday 28 Nov 2014 (Local Time) from KCRE Reporting Station
Clear Clear  
Wind Chill: 27°   Ceiling: Unl
Heat Index: 32°   Visibility: 10mi
Dew Point: 27°   Wind: 5mph
Humidity: 82%   Direction: 350°N
Pressure: 30.34"   Gusts: NA
Location:  33.83°N, 78.68°W
Report Text: KCRE 281153Z 35004KT 10SM CLR 00/M03 A3034 RMK AO1 SLP274 T00001028 10033 20000 51017
Loading
Personal Weather Stations






























Interactive Weather Map New forecast layout! Learn more

10-Day Weather Forecast

Advertisements
Track Severe Weather on mobile